Thunder radar more information blitzortung!


Radar de pluja more information rain snow radar


Visita la nostra xarxa de llocs de meteo:

Template documentation
and downloads

And another site



No particular awareness of the weather is required.    There are no Weather-warnings

Pagina Historial Weather Underground text

Diari Resum Juny 29, 2017 Unitats:  Tant    Imperial   Mètric
« Previous Dia
SegĂźent Dia »
Diari Setmana Mensual Anual Personalitzada
  Maxima: Minima: Media:
Temperatura: 80.4 °F /  26.9 °C 59.2 °F /  15.1 °C 72.5 °F /  22.5 °C
Punt de rosada: 55.4 °F /  13.0 °C 35.4 °F /  1.9 °C 43.7 °F /  6.5 °C
Humitat: 77 % 22 % 38 %
Wind Speed: 20.7 mph /  33.3 km/h - 5.7 mph /  9.2 km/h
RĂ fegues de vent: 20.7 mph /  33.3 km/h - -
Vent:- - SW
Pression baro: 29.8 in /  1010.0 hPa 29.7 in /  1005.0 hPa -
Precipitacions: 0 in /  0.0 mm    
Historical Graphs
 
 
Dades de taula per Juny 29, 2017
Temps Temperatura Punt de rosada Pression baro Vent Wind Speed RĂ fegues de vent Humitat Rainfall Rate (Hourly)
00:00 65.8 °F /  18.8 °C 55 °F /  12.8 °C 29.7 in /  1005.0 hPa NNE 4.6 mph /  7.4 km/h 4.6 mph /  7.4 km/h 68 % 0 in /  0.0 mm
00:05 65.8 °F /  18.8 °C 55.4 °F /  13.0 °C 29.7 in /  1005.0 hPa ENE 3.5 mph /  5.6 km/h 3.5 mph /  5.6 km/h 69 % 0 in /  0.0 mm
00:06 65.8 °F /  18.8 °C 55.4 °F /  13.0 °C 29.7 in /  1005.0 hPa NNE 4 mph /  6.4 km/h 4 mph /  6.4 km/h 69 % 0 in /  0.0 mm
00:15 60.4 °F /  15.8 °C 53.2 °F /  11.8 °C 29.7 in /  1005.0 hPa SW 1 mph /  1.6 km/h 2 mph /  3.2 km/h 77 % 0 in /  0.0 mm
00:25 60.1 °F /  15.6 °C 52.5 °F /  11.4 °C 29.7 in /  1005.0 hPa SW 1 mph /  1.6 km/h 2 mph /  3.2 km/h 76 % 0 in /  0.0 mm
00:35 59.9 °F /  15.5 °C 52.3 °F /  11.3 °C 29.7 in /  1005.0 hPa SW 2 mph /  3.2 km/h 2 mph /  3.2 km/h 76 % 0 in /  0.0 mm
00:45 60.4 °F /  15.8 °C 52.2 °F /  11.2 °C 29.7 in /  1005.0 hPa WSW 2 mph /  3.2 km/h 3 mph /  4.8 km/h 74 % 0 in /  0.0 mm
00:55 60.8 °F /  16.0 °C 52.5 °F /  11.4 °C 29.7 in /  1005.0 hPa WSW 1 mph /  1.6 km/h 2 mph /  3.2 km/h 74 % 0 in /  0.0 mm
01:05 60.4 °F /  15.8 °C 52.2 °F /  11.2 °C 29.7 in /  1005.0 hPa Calm   1 mph /  1.6 km/h 74 % 0 in /  0.0 mm
01:15 59.9 °F /  15.5 °C 51.6 °F /  10.9 °C 29.7 in /  1006.0 hPa Calm   2 mph /  3.2 km/h 74 % 0 in /  0.0 mm
01:25 59.7 °F /  15.4 °C 51.8 °F /  11.0 °C 29.7 in /  1006.0 hPa Calm   1 mph /  1.6 km/h 75 % 0 in /  0.0 mm
01:35 59.4 °F /  15.2 °C 51.1 °F /  10.6 °C 29.7 in /  1006.0 hPa West 1 mph /  1.6 km/h 3 mph /  4.8 km/h 74 % 0 in /  0.0 mm
01:45 59.2 °F /  15.1 °C 50.9 °F /  10.5 °C 29.7 in /  1006.0 hPa WSW 1 mph /  1.6 km/h 3 mph /  4.8 km/h 74 % 0 in /  0.0 mm
01:55 60.1 °F /  15.6 °C 51.8 °F /  11.0 °C 29.7 in /  1006.0 hPa NNE 2 mph /  3.2 km/h 2 mph /  3.2 km/h 74 % 0 in /  0.0 mm
02:05 61.5 °F /  16.4 °C 51.6 °F /  10.9 °C 29.7 in /  1006.0 hPa East 2 mph /  3.2 km/h 3 mph /  4.8 km/h 70 % 0 in /  0.0 mm
02:15 62.1 °F /  16.7 °C 51.1 °F /  10.6 °C 29.7 in /  1006.0 hPa SE 2 mph /  3.2 km/h 3 mph /  4.8 km/h 67 % 0 in /  0.0 mm
02:25 63.3 °F /  17.4 °C 50.5 °F /  10.3 °C 29.7 in /  1006.0 hPa ENE 2 mph /  3.2 km/h 3 mph /  4.8 km/h 63 % 0 in /  0.0 mm
02:35 63 °F /  17.2 °C 50.5 °F /  10.3 °C 29.7 in /  1006.0 hPa ENE 2 mph /  3.2 km/h 3 mph /  4.8 km/h 64 % 0 in /  0.0 mm
02:45 64 °F /  17.8 °C 51.3 °F /  10.7 °C 29.7 in /  1006.0 hPa SSE 1 mph /  1.6 km/h 3 mph /  4.8 km/h 63 % 0 in /  0.0 mm
02:55 64.4 °F /  18.0 °C 51.1 °F /  10.6 °C 29.7 in /  1006.0 hPa SSE 1 mph /  1.6 km/h 2 mph /  3.2 km/h 62 % 0 in /  0.0 mm
03:05 64.8 °F /  18.2 °C 51.1 °F /  10.6 °C 29.7 in /  1006.0 hPa WSW 2 mph /  3.2 km/h 3 mph /  4.8 km/h 61 % 0 in /  0.0 mm
03:15 64.9 °F /  18.3 °C 50.7 °F /  10.4 °C 29.7 in /  1007.0 hPa West 2 mph /  3.2 km/h 5 mph /  8.0 km/h 60 % 0 in /  0.0 mm
03:25 64.9 °F /  18.3 °C 49.8 °F /  9.9 °C 29.7 in /  1006.0 hPa West 3 mph /  4.8 km/h 4 mph /  6.4 km/h 58 % 0 in /  0.0 mm
03:35 65.5 °F /  18.6 °C 49.8 °F /  9.9 °C 29.7 in /  1006.0 hPa West 5 mph /  8.0 km/h 6 mph /  9.7 km/h 57 % 0 in /  0.0 mm
03:45 65.7 °F /  18.7 °C 49.5 °F /  9.7 °C 29.7 in /  1006.0 hPa WSW 3 mph /  4.8 km/h 3 mph /  4.8 km/h 56 % 0 in /  0.0 mm
03:55 65.7 °F /  18.7 °C 48.9 °F /  9.4 °C 29.7 in /  1007.0 hPa WSW 6 mph /  9.7 km/h 7 mph /  11.3 km/h 55 % 0 in /  0.0 mm
04:05 66 °F /  18.9 °C 48.9 °F /  9.4 °C 29.7 in /  1007.0 hPa West 2 mph /  3.2 km/h 6 mph /  9.7 km/h 54 % 0 in /  0.0 mm
04:15 66.9 °F /  19.4 °C 49.3 °F /  9.6 °C 29.7 in /  1007.0 hPa West 3 mph /  4.8 km/h 6 mph /  9.7 km/h 53 % 0 in /  0.0 mm
04:25 67.5 °F /  19.7 °C 49.3 °F /  9.6 °C 29.7 in /  1007.0 hPa West 3 mph /  4.8 km/h 6 mph /  9.7 km/h 52 % 0 in /  0.0 mm
04:35 67.1 °F /  19.5 °C 47.8 °F /  8.8 °C 29.7 in /  1007.0 hPa WSW 3 mph /  4.8 km/h 11 mph /  17.7 km/h 50 % 0 in /  0.0 mm
04:45 68.2 °F /  20.1 °C 48.7 °F /  9.3 °C 29.7 in /  1007.0 hPa WSW 3 mph /  4.8 km/h 6 mph /  9.7 km/h 50 % 0 in /  0.0 mm
04:55 68.4 °F /  20.2 °C 48.6 °F /  9.2 °C 29.7 in /  1007.0 hPa WSW 3 mph /  4.8 km/h 8 mph /  12.9 km/h 49 % 0 in /  0.0 mm
05:05 69.1 °F /  20.6 °C 49.1 °F /  9.5 °C 29.7 in /  1007.0 hPa West 3 mph /  4.8 km/h 4 mph /  6.4 km/h 49 % 0 in /  0.0 mm
05:15 70 °F /  21.1 °C 49.5 °F /  9.7 °C 29.7 in /  1007.0 hPa WSW 2 mph /  3.2 km/h 3 mph /  4.8 km/h 48 % 0 in /  0.0 mm
05:25 70.7 °F /  21.5 °C 49.5 °F /  9.7 °C 29.7 in /  1007.0 hPa West 3 mph /  4.8 km/h 8 mph /  12.9 km/h 47 % 0 in /  0.0 mm
05:35 71.6 °F /  22.0 °C 49.6 °F /  9.8 °C 29.7 in /  1007.0 hPa West 3 mph /  4.8 km/h 4 mph /  6.4 km/h 46 % 0 in /  0.0 mm
05:45 72.7 °F /  22.6 °C 50.2 °F /  10.1 °C 29.7 in /  1006.0 hPa West 6 mph /  9.7 km/h 6 mph /  9.7 km/h 45 % 0 in /  0.0 mm
05:55 72.5 °F /  22.5 °C 48 °F /  8.9 °C 29.7 in /  1006.0 hPa WSW 3 mph /  4.8 km/h 8 mph /  12.9 km/h 42 % 0 in /  0.0 mm
06:05 73 °F /  22.8 °C 47.3 °F /  8.5 °C 29.7 in /  1006.0 hPa WSW 2 mph /  3.2 km/h 5 mph /  8.0 km/h 40 % 0 in /  0.0 mm
06:15 72.9 °F /  22.7 °C 46.4 °F /  8.0 °C 29.7 in /  1006.0 hPa WSW 5 mph /  8.0 km/h 8 mph /  12.9 km/h 39 % 0 in /  0.0 mm
11:16 73.4 °F /  23.0 °C 46.2 °F /  7.9 °C 29.7 in /  1006.0 hPa SW 20.7 mph /  33.3 km/h 20.7 mph /  33.3 km/h 38 % 0 in /  0.0 mm
11:21 73.4 °F /  23.0 °C 45.5 °F /  7.5 °C 29.7 in /  1006.0 hPa WNW 7.4 mph /  11.9 km/h 7.4 mph /  11.9 km/h 37 % 0 in /  0.0 mm
11:26 73.9 °F /  23.3 °C 46 °F /  7.8 °C 29.7 in /  1006.0 hPa SW 8.1 mph /  13.0 km/h 8.1 mph /  13.0 km/h 37 % 0 in /  0.0 mm
11:31 73.6 °F /  23.1 °C 45.7 °F /  7.6 °C 29.7 in /  1006.0 hPa SW 12.7 mph /  20.4 km/h 12.7 mph /  20.4 km/h 37 % 0 in /  0.0 mm
11:36 74.1 °F /  23.4 °C 46.2 °F /  7.9 °C 29.7 in /  1006.0 hPa WSW 9.2 mph /  14.8 km/h 9.2 mph /  14.8 km/h 37 % 0 in /  0.0 mm
11:41 74.3 °F /  23.5 °C 46.2 °F /  7.9 °C 29.7 in /  1006.0 hPa WSW 5.8 mph /  9.3 km/h 5.8 mph /  9.3 km/h 37 % 0 in /  0.0 mm
11:46 75.2 °F /  24.0 °C 47.1 °F /  8.4 °C 29.7 in /  1006.0 hPa East 4.6 mph /  7.4 km/h 4.6 mph /  7.4 km/h 37 % 0 in /  0.0 mm
11:51 75.6 °F /  24.2 °C 46.8 °F /  8.2 °C 29.7 in /  1006.0 hPa SW 8.1 mph /  13.0 km/h 8.1 mph /  13.0 km/h 36 % 0 in /  0.0 mm
11:56 75.7 °F /  24.3 °C 47.7 °F /  8.7 °C 29.7 in /  1006.0 hPa West 4 mph /  6.4 km/h 4 mph /  6.4 km/h 37 % 0 in /  0.0 mm
12:01 75 °F /  23.9 °C 46.2 °F /  7.9 °C 29.7 in /  1006.0 hPa WSW 6.9 mph /  11.1 km/h 6.9 mph /  11.1 km/h 36 % 0 in /  0.0 mm
12:06 75.7 °F /  24.3 °C 46 °F /  7.8 °C 29.7 in /  1006.0 hPa SW 7.6 mph /  12.2 km/h 7.6 mph /  12.2 km/h 35 % 0 in /  0.0 mm
12:11 75.6 °F /  24.2 °C 45.1 °F /  7.3 °C 29.7 in /  1006.0 hPa WSW 8.1 mph /  13.0 km/h 8.1 mph /  13.0 km/h 34 % 0 in /  0.0 mm
12:16 75.9 °F /  24.4 °C 45.5 °F /  7.5 °C 29.7 in /  1006.0 hPa SW 8.1 mph /  13.0 km/h 8.1 mph /  13.0 km/h 34 % 0 in /  0.0 mm
12:17 76.1 °F /  24.5 °C 45.7 °F /  7.6 °C 29.7 in /  1006.0 hPa West 6.2 mph /  10.0 km/h 6.2 mph /  10.0 km/h 34 % 0 in /  0.0 mm
12:22 75.4 °F /  24.1 °C 43.5 °F /  6.4 °C 29.7 in /  1006.0 hPa West 7.8 mph /  12.6 km/h 7.8 mph /  12.6 km/h 32 % 0 in /  0.0 mm
12:27 75.9 °F /  24.4 °C 43.9 °F /  6.6 °C 29.7 in /  1006.0 hPa SW 4.6 mph /  7.4 km/h 4.6 mph /  7.4 km/h 32 % 0 in /  0.0 mm
12:32 76.3 °F /  24.6 °C 45.1 °F /  7.3 °C 29.7 in /  1006.0 hPa SSW 9.2 mph /  14.8 km/h 9.2 mph /  14.8 km/h 33 % 0 in /  0.0 mm
12:37 76.5 °F /  24.7 °C 44.4 °F /  6.9 °C 29.7 in /  1006.0 hPa WNW 8.1 mph /  13.0 km/h 8.1 mph /  13.0 km/h 32 % 0 in /  0.0 mm
12:42 76.3 °F /  24.6 °C 43.3 °F /  6.3 °C 29.7 in /  1006.0 hPa SW 8.1 mph /  13.0 km/h 8.1 mph /  13.0 km/h 31 % 0 in /  0.0 mm
12:47 76.1 °F /  24.5 °C 43.3 °F /  6.3 °C 29.7 in /  1006.0 hPa WSW 9.2 mph /  14.8 km/h 9.2 mph /  14.8 km/h 31 % 0 in /  0.0 mm
12:52 75.7 °F /  24.3 °C 43 °F /  6.1 °C 29.7 in /  1006.0 hPa WNW 6.9 mph /  11.1 km/h 6.9 mph /  11.1 km/h 31 % 0 in /  0.0 mm
12:57 77 °F /  25.0 °C 43.2 °F /  6.2 °C 29.7 in /  1006.0 hPa West 4.7 mph /  7.6 km/h 4.7 mph /  7.6 km/h 30 % 0 in /  0.0 mm
13:02 77.4 °F /  25.2 °C 44.4 °F /  6.9 °C 29.7 in /  1006.0 hPa WSW 5.8 mph /  9.3 km/h 5.8 mph /  9.3 km/h 31 % 0 in /  0.0 mm
13:07 77.5 °F /  25.3 °C 44.4 °F /  6.9 °C 29.7 in /  1006.0 hPa West 9.2 mph /  14.8 km/h 9.2 mph /  14.8 km/h 31 % 0 in /  0.0 mm
13:12 77.7 °F /  25.4 °C 43.9 °F /  6.6 °C 29.7 in /  1006.0 hPa WSW 10.5 mph /  16.9 km/h 10.5 mph /  16.9 km/h 30 % 0 in /  0.0 mm
13:17 77.5 °F /  25.3 °C 43.5 °F /  6.4 °C 29.7 in /  1006.0 hPa West 8.7 mph /  14.0 km/h 8.7 mph /  14.0 km/h 30 % 0 in /  0.0 mm
13:22 77.9 °F /  25.5 °C 44.1 °F /  6.7 °C 29.7 in /  1006.0 hPa SW 6 mph /  9.7 km/h 6 mph /  9.7 km/h 30 % 0 in /  0.0 mm
13:27 77.5 °F /  25.3 °C 42.8 °F /  6.0 °C 29.7 in /  1006.0 hPa WSW 7.8 mph /  12.6 km/h 7.8 mph /  12.6 km/h 29 % 0 in /  0.0 mm
13:32 77.7 °F /  25.4 °C 43 °F /  6.1 °C 29.7 in /  1006.0 hPa West 8.1 mph /  13.0 km/h 8.1 mph /  13.0 km/h 29 % 0 in /  0.0 mm
13:37 78.8 °F /  26.0 °C 43.9 °F /  6.6 °C 29.7 in /  1006.0 hPa NNW 3.5 mph /  5.6 km/h 3.6 mph /  5.8 km/h 29 % 0 in /  0.0 mm
13:42 77.5 °F /  25.3 °C 42.8 °F /  6.0 °C 29.7 in /  1006.0 hPa WNW 9.2 mph /  14.8 km/h 9.2 mph /  14.8 km/h 29 % 0 in /  0.0 mm
13:47 77.4 °F /  25.2 °C 41.7 °F /  5.4 °C 29.7 in /  1006.0 hPa WSW 12.7 mph /  20.4 km/h 12.7 mph /  20.4 km/h 28 % 0 in /  0.0 mm
13:52 77.9 °F /  25.5 °C 42.3 °F /  5.7 °C 29.7 in /  1006.0 hPa WSW 7.6 mph /  12.2 km/h 7.6 mph /  12.2 km/h 28 % 0 in /  0.0 mm
13:57 77.9 °F /  25.5 °C 42.3 °F /  5.7 °C 29.7 in /  1007.0 hPa West 9.2 mph /  14.8 km/h 9.2 mph /  14.8 km/h 28 % 0 in /  0.0 mm
14:02 78.3 °F /  25.7 °C 42.4 °F /  5.8 °C 29.7 in /  1007.0 hPa West 8.1 mph /  13.0 km/h 8.1 mph /  13.0 km/h 28 % 0 in /  0.0 mm
14:07 78.6 °F /  25.9 °C 42.8 °F /  6.0 °C 29.7 in /  1007.0 hPa WSW 4.6 mph /  7.4 km/h 4.6 mph /  7.4 km/h 28 % 0 in /  0.0 mm
14:12 79 °F /  26.1 °C 43.2 °F /  6.2 °C 29.7 in /  1007.0 hPa SW 6.9 mph /  11.1 km/h 6.9 mph /  11.1 km/h 28 % 0 in /  0.0 mm
14:17 79.2 °F /  26.2 °C 43.2 °F /  6.2 °C 29.7 in /  1007.0 hPa SW 5.8 mph /  9.3 km/h 5.8 mph /  9.3 km/h 28 % 0 in /  0.0 mm
14:22 78.6 °F /  25.9 °C 42.8 °F /  6.0 °C 29.7 in /  1007.0 hPa West 9.7 mph /  15.6 km/h 9.7 mph /  15.6 km/h 28 % 0 in /  0.0 mm
14:27 78.6 °F /  25.9 °C 41.7 °F /  5.4 °C 29.7 in /  1007.0 hPa WSW 10.4 mph /  16.7 km/h 10.4 mph /  16.7 km/h 27 % 0 in /  0.0 mm
14:32 78.6 °F /  25.9 °C 41.7 °F /  5.4 °C 29.7 in /  1007.0 hPa SW 10.4 mph /  16.7 km/h 10.4 mph /  16.7 km/h 27 % 0 in /  0.0 mm
14:37 78.8 °F /  26.0 °C 42.1 °F /  5.6 °C 29.7 in /  1007.0 hPa SSE 4.3 mph /  6.9 km/h 4.3 mph /  6.9 km/h 27 % 0 in /  0.0 mm
14:42 79.2 °F /  26.2 °C 42.3 °F /  5.7 °C 29.7 in /  1007.0 hPa South 9.2 mph /  14.8 km/h 9.2 mph /  14.8 km/h 27 % 0 in /  0.0 mm
14:47 79.7 °F /  26.5 °C 42.8 °F /  6.0 °C 29.7 in /  1007.0 hPa West 5.8 mph /  9.3 km/h 5.8 mph /  9.3 km/h 27 % 0 in /  0.0 mm
14:52 79 °F /  26.1 °C 43.2 °F /  6.2 °C 29.7 in /  1007.0 hPa WSW 5.6 mph /  9.0 km/h 5.6 mph /  9.0 km/h 28 % 0 in /  0.0 mm
14:57 79 °F /  26.1 °C 42.1 °F /  5.6 °C 29.7 in /  1007.0 hPa West 5.8 mph /  9.3 km/h 5.8 mph /  9.3 km/h 27 % 0 in /  0.0 mm
15:02 79.3 °F /  26.3 °C 42.4 °F /  5.8 °C 29.7 in /  1007.0 hPa WSW 8.1 mph /  13.0 km/h 8.1 mph /  13.0 km/h 27 % 0 in /  0.0 mm
15:05 80.2 °F /  26.8 °C 43.2 °F /  6.2 °C 29.7 in /  1007.0 hPa South 4.9 mph /  7.9 km/h 4.9 mph /  7.9 km/h 27 % 0 in /  0.0 mm
15:10 79.7 °F /  26.5 °C 42.8 °F /  6.0 °C 29.7 in /  1007.0 hPa WSW 9.2 mph /  14.8 km/h 9.2 mph /  14.8 km/h 27 % 0 in /  0.0 mm
15:15 79.7 °F /  26.5 °C 42.8 °F /  6.0 °C 29.7 in /  1006.0 hPa WNW 12.3 mph /  19.8 km/h 12.3 mph /  19.8 km/h 27 % 0 in /  0.0 mm
15:20 79.9 °F /  26.6 °C 43 °F /  6.1 °C 29.7 in /  1006.0 hPa SW 12.7 mph /  20.4 km/h 12.7 mph /  20.4 km/h 27 % 0 in /  0.0 mm
15:25 79.7 °F /  26.5 °C 41.7 °F /  5.4 °C 29.7 in /  1006.0 hPa WSW 8.1 mph /  13.0 km/h 8.1 mph /  13.0 km/h 26 % 0 in /  0.0 mm
15:30 79.7 °F /  26.5 °C 42.8 °F /  6.0 °C 29.7 in /  1006.0 hPa South 9.2 mph /  14.8 km/h 9.2 mph /  14.8 km/h 27 % 0 in /  0.0 mm
15:35 78.4 °F /  25.8 °C 41.7 °F /  5.4 °C 29.7 in /  1006.0 hPa SW 6 mph /  9.7 km/h 6 mph /  9.7 km/h 27 % 0 in /  0.0 mm
15:40 77.9 °F /  25.5 °C 40.3 °F /  4.6 °C 29.7 in /  1006.0 hPa SSW 9.2 mph /  14.8 km/h 9.2 mph /  14.8 km/h 26 % 0 in /  0.0 mm
15:45 77.5 °F /  25.3 °C 40.8 °F /  4.9 °C 29.7 in /  1006.0 hPa WSW 8.1 mph /  13.0 km/h 8.1 mph /  13.0 km/h 27 % 0 in /  0.0 mm
15:46 77.5 °F /  25.3 °C 39.9 °F /  4.4 °C 29.7 in /  1006.0 hPa West 11.5 mph /  18.5 km/h 11.5 mph /  18.5 km/h 26 % 0 in /  0.0 mm
15:51 79 °F /  26.1 °C 41.2 °F /  5.1 °C 29.7 in /  1006.0 hPa West 8.1 mph /  13.0 km/h 8.1 mph /  13.0 km/h 26 % 0 in /  0.0 mm
15:56 78.1 °F /  25.6 °C 40.5 °F /  4.7 °C 29.7 in /  1006.0 hPa WSW 5.8 mph /  9.3 km/h 5.8 mph /  9.3 km/h 26 % 0 in /  0.0 mm
16:01 79.2 °F /  26.2 °C 41.4 °F /  5.2 °C 29.7 in /  1006.0 hPa West 5.8 mph /  9.3 km/h 5.8 mph /  9.3 km/h 26 % 0 in /  0.0 mm
16:06 79.9 °F /  26.6 °C 43 °F /  6.1 °C 29.7 in /  1006.0 hPa WSW 12.7 mph /  20.4 km/h 12.7 mph /  20.4 km/h 27 % 0 in /  0.0 mm
16:11 79.7 °F /  26.5 °C 41.7 °F /  5.4 °C 29.7 in /  1006.0 hPa WSW 9.2 mph /  14.8 km/h 9.2 mph /  14.8 km/h 26 % 0 in /  0.0 mm
16:16 80.1 °F /  26.7 °C 42.1 °F /  5.6 °C 29.7 in /  1006.0 hPa NNW 5.8 mph /  9.3 km/h 5.8 mph /  9.3 km/h 26 % 0 in /  0.0 mm
16:21 79.5 °F /  26.4 °C 41.5 °F /  5.3 °C 29.7 in /  1006.0 hPa WSW 10.4 mph /  16.7 km/h 10.4 mph /  16.7 km/h 26 % 0 in /  0.0 mm
16:26 80.1 °F /  26.7 °C 42.1 °F /  5.6 °C 29.7 in /  1006.0 hPa West 10.2 mph /  16.4 km/h 10.2 mph /  16.4 km/h 26 % 0 in /  0.0 mm
16:31 79.9 °F /  26.6 °C 41.9 °F /  5.5 °C 29.7 in /  1006.0 hPa SW 5.9 mph /  9.5 km/h 5.9 mph /  9.5 km/h 26 % 0 in /  0.0 mm
16:36 79.7 °F /  26.5 °C 41.7 °F /  5.4 °C 29.7 in /  1006.0 hPa NNW 10.4 mph /  16.7 km/h 10.4 mph /  16.7 km/h 26 % 0 in /  0.0 mm
16:41 79.5 °F /  26.4 °C 41.5 °F /  5.3 °C 29.7 in /  1006.0 hPa NNW 10.4 mph /  16.7 km/h 10.4 mph /  16.7 km/h 26 % 0 in /  0.0 mm
16:46 78.3 °F /  25.7 °C 40.5 °F /  4.7 °C 29.7 in /  1006.0 hPa West 5.8 mph /  9.3 km/h 5.8 mph /  9.3 km/h 26 % 0 in /  0.0 mm
16:51 79.2 °F /  26.2 °C 41.4 °F /  5.2 °C 29.7 in /  1006.0 hPa WNW 11.5 mph /  18.5 km/h 11.5 mph /  18.5 km/h 26 % 0 in /  0.0 mm
16:56 79.9 °F /  26.6 °C 40.8 °F /  4.9 °C 29.7 in /  1006.0 hPa SW 9.2 mph /  14.8 km/h 9.2 mph /  14.8 km/h 25 % 0 in /  0.0 mm
17:01 79.3 °F /  26.3 °C 40.5 °F /  4.7 °C 29.7 in /  1006.0 hPa WSW 8.1 mph /  13.0 km/h 8.1 mph /  13.0 km/h 25 % 0 in /  0.0 mm
17:06 79.7 °F /  26.5 °C 40.8 °F /  4.9 °C 29.7 in /  1006.0 hPa West 15 mph /  24.1 km/h 15 mph /  24.1 km/h 25 % 0 in /  0.0 mm
17:07 79.9 °F /  26.6 °C 40.8 °F /  4.9 °C 29.7 in /  1006.0 hPa SW 5.8 mph /  9.3 km/h 5.8 mph /  9.3 km/h 25 % 0 in /  0.0 mm
17:12 80.4 °F /  26.9 °C 41.4 °F /  5.2 °C 29.7 in /  1006.0 hPa WSW 10.5 mph /  16.9 km/h 10.5 mph /  16.9 km/h 25 % 0 in /  0.0 mm
17:17 79.7 °F /  26.5 °C 40.8 °F /  4.9 °C 29.7 in /  1006.0 hPa SW 8.1 mph /  13.0 km/h 8.1 mph /  13.0 km/h 25 % 0 in /  0.0 mm
17:22 80.1 °F /  26.7 °C 41.2 °F /  5.1 °C 29.7 in /  1006.0 hPa West 5.8 mph /  9.3 km/h 5.8 mph /  9.3 km/h 25 % 0 in /  0.0 mm
17:27 79.9 °F /  26.6 °C 40.8 °F /  4.9 °C 29.7 in /  1006.0 hPa WNW 8.1 mph /  13.0 km/h 8.1 mph /  13.0 km/h 25 % 0 in /  0.0 mm
17:32 80.2 °F /  26.8 °C 41.2 °F /  5.1 °C 29.7 in /  1006.0 hPa WSW 9.2 mph /  14.8 km/h 9.2 mph /  14.8 km/h 25 % 0 in /  0.0 mm
17:37 80.4 °F /  26.9 °C 40.3 °F /  4.6 °C 29.7 in /  1006.0 hPa WSW 15 mph /  24.1 km/h 15 mph /  24.1 km/h 24 % 0 in /  0.0 mm
17:42 79.5 °F /  26.4 °C 39.6 °F /  4.2 °C 29.7 in /  1006.0 hPa WSW 6.9 mph /  11.1 km/h 6.9 mph /  11.1 km/h 24 % 0 in /  0.0 mm
17:47 79.7 °F /  26.5 °C 39.7 °F /  4.3 °C 29.7 in /  1006.0 hPa West 8.1 mph /  13.0 km/h 8.1 mph /  13.0 km/h 24 % 0 in /  0.0 mm
17:52 79.9 °F /  26.6 °C 39.9 °F /  4.4 °C 29.7 in /  1006.0 hPa WSW 9.2 mph /  14.8 km/h 9.2 mph /  14.8 km/h 24 % 0 in /  0.0 mm
17:57 80.1 °F /  26.7 °C 39.9 °F /  4.4 °C 29.7 in /  1005.0 hPa WSW 5.8 mph /  9.3 km/h 5.8 mph /  9.3 km/h 24 % 0 in /  0.0 mm
18:02 80.2 °F /  26.8 °C 40.3 °F /  4.6 °C 29.7 in /  1005.0 hPa West 9.2 mph /  14.8 km/h 9.2 mph /  14.8 km/h 24 % 0 in /  0.0 mm
18:07 80.4 °F /  26.9 °C 40.3 °F /  4.6 °C 29.7 in /  1005.0 hPa West 11.5 mph /  18.5 km/h 11.5 mph /  18.5 km/h 24 % 0 in /  0.0 mm
18:12 79.9 °F /  26.6 °C 39.9 °F /  4.4 °C 29.7 in /  1006.0 hPa WSW 8.1 mph /  13.0 km/h 8.1 mph /  13.0 km/h 24 % 0 in /  0.0 mm
18:17 80.1 °F /  26.7 °C 39.9 °F /  4.4 °C 29.7 in /  1006.0 hPa WSW 6.9 mph /  11.1 km/h 6.9 mph /  11.1 km/h 24 % 0 in /  0.0 mm
18:22 79.2 °F /  26.2 °C 38.1 °F /  3.4 °C 29.7 in /  1006.0 hPa NW 9.2 mph /  14.8 km/h 9.2 mph /  14.8 km/h 23 % 0 in /  0.0 mm
18:27 79.7 °F /  26.5 °C 38.7 °F /  3.7 °C 29.7 in /  1006.0 hPa SSW 9.2 mph /  14.8 km/h 9.2 mph /  14.8 km/h 23 % 0 in /  0.0 mm
18:32 79.5 °F /  26.4 °C 38.5 °F /  3.6 °C 29.7 in /  1006.0 hPa WSW 13.8 mph /  22.2 km/h 13.8 mph /  22.2 km/h 23 % 0 in /  0.0 mm
18:37 79 °F /  26.1 °C 36.9 °F /  2.7 °C 29.7 in /  1006.0 hPa West 9.2 mph /  14.8 km/h 9.2 mph /  14.8 km/h 22 % 0 in /  0.0 mm
18:42 79 °F /  26.1 °C 36.9 °F /  2.7 °C 29.7 in /  1006.0 hPa WSW 6.9 mph /  11.1 km/h 6.9 mph /  11.1 km/h 22 % 0 in /  0.0 mm
18:47 79 °F /  26.1 °C 36.9 °F /  2.7 °C 29.7 in /  1006.0 hPa West 9.2 mph /  14.8 km/h 9.2 mph /  14.8 km/h 22 % 0 in /  0.0 mm
18:52 78.8 °F /  26.0 °C 36.7 °F /  2.6 °C 29.7 in /  1006.0 hPa West 9.4 mph /  15.1 km/h 9.4 mph /  15.1 km/h 22 % 0 in /  0.0 mm
18:57 78.6 °F /  25.9 °C 36.7 °F /  2.6 °C 29.7 in /  1006.0 hPa West 5.8 mph /  9.3 km/h 5.8 mph /  9.3 km/h 22 % 0 in /  0.0 mm
19:02 78.6 °F /  25.9 °C 36.7 °F /  2.6 °C 29.7 in /  1006.0 hPa WSW 6.9 mph /  11.1 km/h 6.9 mph /  11.1 km/h 22 % 0 in /  0.0 mm
19:07 78.8 °F /  26.0 °C 36.7 °F /  2.6 °C 29.7 in /  1006.0 hPa SW 8.1 mph /  13.0 km/h 8.1 mph /  13.0 km/h 22 % 0 in /  0.0 mm
19:12 78.6 °F /  25.9 °C 36.7 °F /  2.6 °C 29.7 in /  1006.0 hPa SW 8.1 mph /  13.0 km/h 8.1 mph /  13.0 km/h 22 % 0 in /  0.0 mm
19:17 78.4 °F /  25.8 °C 36.3 °F /  2.4 °C 29.7 in /  1006.0 hPa SW 2.3 mph /  3.7 km/h 2.3 mph /  3.7 km/h 22 % 0 in /  0.0 mm
19:22 78.4 °F /  25.8 °C 36.3 °F /  2.4 °C 29.7 in /  1006.0 hPa WNW 12.7 mph /  20.4 km/h 12.7 mph /  20.4 km/h 22 % 0 in /  0.0 mm
19:27 77.9 °F /  25.5 °C 36 °F /  2.2 °C 29.7 in /  1006.0 hPa WNW 9.2 mph /  14.8 km/h 9.2 mph /  14.8 km/h 22 % 0 in /  0.0 mm
19:32 78.1 °F /  25.6 °C 36.1 °F /  2.3 °C 29.7 in /  1006.0 hPa NW 9.2 mph /  14.8 km/h 9.2 mph /  14.8 km/h 22 % 0 in /  0.0 mm
19:35 65.8 °F /  18.8 °C 46.8 °F /  8.2 °C 29.8 in /  1010.0 hPa East 2 mph /  3.2 km/h 4 mph /  6.4 km/h 50 % 0 in /  0.0 mm
19:37 78.1 °F /  25.6 °C 36.1 °F /  2.3 °C 29.7 in /  1006.0 hPa WSW 5.8 mph /  9.3 km/h 5.8 mph /  9.3 km/h 22 % 0 in /  0.0 mm
19:42 77.9 °F /  25.5 °C 36 °F /  2.2 °C 29.7 in /  1006.0 hPa West 4.6 mph /  7.4 km/h 4.6 mph /  7.4 km/h 22 % 0 in /  0.0 mm
19:45 65.5 °F /  18.6 °C 45.9 °F /  7.7 °C 29.8 in /  1010.0 hPa East 2 mph /  3.2 km/h 3 mph /  4.8 km/h 49 % 0 in /  0.0 mm
19:47 78.1 °F /  25.6 °C 37.2 °F /  2.9 °C 29.7 in /  1006.0 hPa WSW 4.6 mph /  7.4 km/h 4.6 mph /  7.4 km/h 23 % 0 in /  0.0 mm
19:52 77.9 °F /  25.5 °C 37 °F /  2.8 °C 29.7 in /  1006.0 hPa WSW 8.1 mph /  13.0 km/h 8.1 mph /  13.0 km/h 23 % 0 in /  0.0 mm
19:55 65.3 °F /  18.5 °C 45.7 °F /  7.6 °C 29.8 in /  1010.0 hPa East 5 mph /  8.0 km/h 5 mph /  8.0 km/h 49 % 0 in /  0.0 mm
19:57 77.5 °F /  25.3 °C 35.8 °F /  2.1 °C 29.7 in /  1006.0 hPa West 5.8 mph /  9.3 km/h 5.8 mph /  9.3 km/h 22 % 0 in /  0.0 mm
20:02 77.5 °F /  25.3 °C 35.8 °F /  2.1 °C 29.7 in /  1006.0 hPa SSE 3.5 mph /  5.6 km/h 3.5 mph /  5.6 km/h 22 % 0 in /  0.0 mm
20:05 65.3 °F /  18.5 °C 45.7 °F /  7.6 °C 29.8 in /  1010.0 hPa ENE 2 mph /  3.2 km/h 6 mph /  9.7 km/h 49 % 0 in /  0.0 mm
20:07 77.2 °F /  25.1 °C 35.4 °F /  1.9 °C 29.7 in /  1006.0 hPa SW 8.1 mph /  13.0 km/h 8.1 mph /  13.0 km/h 22 % 0 in /  0.0 mm
20:12 76.8 °F /  24.9 °C 36.1 °F /  2.3 °C 29.7 in /  1006.0 hPa West 8.1 mph /  13.0 km/h 8.1 mph /  13.0 km/h 23 % 0 in /  0.0 mm
20:15 64.9 °F /  18.3 °C 45.3 °F /  7.4 °C 29.8 in /  1009.0 hPa NE 2 mph /  3.2 km/h 3 mph /  4.8 km/h 49 % 0 in /  0.0 mm
20:17 76.6 °F /  24.8 °C 36 °F /  2.2 °C 29.7 in /  1006.0 hPa SSE 4.6 mph /  7.4 km/h 4.6 mph /  7.4 km/h 23 % 0 in /  0.0 mm
20:22 76.5 °F /  24.7 °C 36 °F /  2.2 °C 29.7 in /  1006.0 hPa WNW 7.6 mph /  12.2 km/h 7.6 mph /  12.2 km/h 23 % 0 in /  0.0 mm
20:25 64.8 °F /  18.2 °C 45.1 °F /  7.3 °C 29.8 in /  1009.0 hPa NE 2 mph /  3.2 km/h 4 mph /  6.4 km/h 49 % 0 in /  0.0 mm
20:27 76.5 °F /  24.7 °C 37 °F /  2.8 °C 29.7 in /  1006.0 hPa WSW 6.2 mph /  10.0 km/h 6.2 mph /  10.0 km/h 24 % 0 in /  0.0 mm
20:32 76.3 °F /  24.6 °C 36.9 °F /  2.7 °C 29.7 in /  1006.0 hPa South 3.5 mph /  5.6 km/h 3.5 mph /  5.6 km/h 24 % 0 in /  0.0 mm
20:35 64.6 °F /  18.1 °C 45 °F /  7.2 °C 29.8 in /  1009.0 hPa East 3 mph /  4.8 km/h 3 mph /  4.8 km/h 49 % 0 in /  0.0 mm
20:37 75.9 °F /  24.4 °C 37.6 °F /  3.1 °C 29.7 in /  1006.0 hPa West 4.6 mph /  7.4 km/h 4.6 mph /  7.4 km/h 25 % 0 in /  0.0 mm
20:42 74.8 °F /  23.8 °C 39.6 °F /  4.2 °C 29.7 in /  1006.0 hPa South 6.9 mph /  11.1 km/h 6.9 mph /  11.1 km/h 28 % 0 in /  0.0 mm
20:45 64.6 °F /  18.1 °C 45 °F /  7.2 °C 29.8 in /  1010.0 hPa ESE 3 mph /  4.8 km/h 6 mph /  9.7 km/h 49 % 0 in /  0.0 mm
20:47 74.1 °F /  23.4 °C 38.8 °F /  3.8 °C 29.7 in /  1006.0 hPa SW 7.6 mph /  12.2 km/h 7.6 mph /  12.2 km/h 28 % 0 in /  0.0 mm
20:52 73.8 °F /  23.2 °C 39.6 °F /  4.2 °C 29.7 in /  1006.0 hPa SW 12.7 mph /  20.4 km/h 12.7 mph /  20.4 km/h 29 % 0 in /  0.0 mm
20:55 64.6 °F /  18.1 °C 45 °F /  7.2 °C 29.8 in /  1010.0 hPa East 2 mph /  3.2 km/h 4 mph /  6.4 km/h 49 % 0 in /  0.0 mm
20:57 73.4 °F /  23.0 °C 40.1 °F /  4.5 °C 29.7 in /  1007.0 hPa SW 8.1 mph /  13.0 km/h 8.1 mph /  13.0 km/h 30 % 0 in /  0.0 mm
21:02 73 °F /  22.8 °C 40.6 °F /  4.8 °C 29.7 in /  1007.0 hPa SSW 8.1 mph /  13.0 km/h 8.1 mph /  13.0 km/h 31 % 0 in /  0.0 mm
21:05 64.4 °F /  18.0 °C 44.2 °F /  6.8 °C 29.8 in /  1010.0 hPa ENE 3 mph /  4.8 km/h 5 mph /  8.0 km/h 48 % 0 in /  0.0 mm
21:07 72.7 °F /  22.6 °C 40.3 °F /  4.6 °C 29.7 in /  1007.0 hPa SW 6 mph /  9.7 km/h 6 mph /  9.7 km/h 31 % 0 in /  0.0 mm
21:12 72.3 °F /  22.4 °C 40.8 °F /  4.9 °C 29.7 in /  1007.0 hPa SW 4.6 mph /  7.4 km/h 4.6 mph /  7.4 km/h 32 % 0 in /  0.0 mm
21:15 64.2 °F /  17.9 °C 44.1 °F /  6.7 °C 29.8 in /  1009.0 hPa NE 2 mph /  3.2 km/h 4 mph /  6.4 km/h 48 % 0 in /  0.0 mm
21:17 72.1 °F /  22.3 °C 40.6 °F /  4.8 °C 29.7 in /  1007.0 hPa SSW 9.2 mph /  14.8 km/h 9.2 mph /  14.8 km/h 32 % 0 in /  0.0 mm
21:22 71.8 °F /  22.1 °C 41.2 °F /  5.1 °C 29.7 in /  1007.0 hPa SW 6.9 mph /  11.1 km/h 6.9 mph /  11.1 km/h 33 % 0 in /  0.0 mm
21:25 63.9 °F /  17.7 °C 44.2 °F /  6.8 °C 29.8 in /  1010.0 hPa NE 2 mph /  3.2 km/h 4 mph /  6.4 km/h 49 % 0 in /  0.0 mm
21:27 71.6 °F /  22.0 °C 41.7 °F /  5.4 °C 29.7 in /  1007.0 hPa WSW 3.5 mph /  5.6 km/h 3.6 mph /  5.8 km/h 34 % 0 in /  0.0 mm
21:32 71.4 °F /  21.9 °C 41.5 °F /  5.3 °C 29.7 in /  1007.0 hPa SW 6.9 mph /  11.1 km/h 6.9 mph /  11.1 km/h 34 % 0 in /  0.0 mm
21:35 63.7 °F /  17.6 °C 44.2 °F /  6.8 °C 29.8 in /  1010.0 hPa NE 1 mph /  1.6 km/h 3 mph /  4.8 km/h 49 % 0 in /  0.0 mm
21:37 71.2 °F /  21.8 °C 42.3 °F /  5.7 °C 29.7 in /  1007.0 hPa SW 5.8 mph /  9.3 km/h 5.8 mph /  9.3 km/h 35 % 0 in /  0.0 mm
21:42 70.9 °F /  21.6 °C 41.9 °F /  5.5 °C 29.7 in /  1007.0 hPa SSW 5.8 mph /  9.3 km/h 5.8 mph /  9.3 km/h 35 % 0 in /  0.0 mm
21:45 63.5 °F /  17.5 °C 44.1 °F /  6.7 °C 29.8 in /  1010.0 hPa Calm   3 mph /  4.8 km/h 49 % 0 in /  0.0 mm
21:47 70.7 °F /  21.5 °C 42.4 °F /  5.8 °C 29.7 in /  1007.0 hPa SW 5.8 mph /  9.3 km/h 5.8 mph /  9.3 km/h 36 % 0 in /  0.0 mm
21:52 70.5 °F /  21.4 °C 42.3 °F /  5.7 °C 29.7 in /  1007.0 hPa SW 4.6 mph /  7.4 km/h 4.6 mph /  7.4 km/h 36 % 0 in /  0.0 mm
21:55 63.1 °F /  17.3 °C 43.7 °F /  6.5 °C 29.8 in /  1010.0 hPa Calm   1 mph /  1.6 km/h 49 % 0 in /  0.0 mm
21:57 70.3 °F /  21.3 °C 42.8 °F /  6.0 °C 29.7 in /  1007.0 hPa SW 4.6 mph /  7.4 km/h 4.6 mph /  7.4 km/h 37 % 0 in /  0.0 mm
22:02 70.2 °F /  21.2 °C 43.3 °F /  6.3 °C 29.7 in /  1007.0 hPa West 4.6 mph /  7.4 km/h 4.6 mph /  7.4 km/h 38 % 0 in /  0.0 mm
22:05 63 °F /  17.2 °C 43.5 °F /  6.4 °C 29.8 in /  1010.0 hPa ENE 2 mph /  3.2 km/h 2 mph /  3.2 km/h 49 % 0 in /  0.0 mm
22:07 70.2 °F /  21.2 °C 44.1 °F /  6.7 °C 29.7 in /  1007.0 hPa SW 4.6 mph /  7.4 km/h 4.6 mph /  7.4 km/h 39 % 0 in /  0.0 mm
22:12 69.8 °F /  21.0 °C 43.7 °F /  6.5 °C 29.8 in /  1008.0 hPa WSW 5.8 mph /  9.3 km/h 5.8 mph /  9.3 km/h 39 % 0 in /  0.0 mm
22:15 62.6 °F /  17.0 °C 43.2 °F /  6.2 °C 29.8 in /  1010.0 hPa ENE 1 mph /  1.6 km/h 2 mph /  3.2 km/h 49 % 0 in /  0.0 mm
22:17 69.6 °F /  20.9 °C 44.2 °F /  6.8 °C 29.8 in /  1008.0 hPa SW 3.5 mph /  5.6 km/h 3.6 mph /  5.8 km/h 40 % 0 in /  0.0 mm
22:22 69.3 °F /  20.7 °C 44.4 °F /  6.9 °C 29.8 in /  1008.0 hPa SW 4.6 mph /  7.4 km/h 4.6 mph /  7.4 km/h 41 % 0 in /  0.0 mm
22:25 62.4 °F /  16.9 °C 44.1 °F /  6.7 °C 29.8 in /  1010.0 hPa NE 1 mph /  1.6 km/h 2 mph /  3.2 km/h 51 % 0 in /  0.0 mm
22:27 69.1 °F /  20.6 °C 44.4 °F /  6.9 °C 29.7 in /  1007.0 hPa SW 4.6 mph /  7.4 km/h 4.6 mph /  7.4 km/h 41 % 0 in /  0.0 mm
22:32 69.1 °F /  20.6 °C 45 °F /  7.2 °C 29.7 in /  1007.0 hPa SW 3.5 mph /  5.6 km/h 3.5 mph /  5.6 km/h 42 % 0 in /  0.0 mm
22:35 62.2 °F /  16.8 °C 43.9 °F /  6.6 °C 29.8 in /  1010.0 hPa ENE 1 mph /  1.6 km/h 3 mph /  4.8 km/h 51 % 0 in /  0.0 mm
22:37 68.9 °F /  20.5 °C 45 °F /  7.2 °C 29.7 in /  1007.0 hPa West 6.9 mph /  11.1 km/h 6.9 mph /  11.1 km/h 42 % 0 in /  0.0 mm
22:42 68.7 °F /  20.4 °C 45.3 °F /  7.4 °C 29.8 in /  1008.0 hPa WSW 3.5 mph /  5.6 km/h 3.5 mph /  5.6 km/h 43 % 0 in /  0.0 mm
22:45 62.2 °F /  16.8 °C 43.9 °F /  6.6 °C 29.8 in /  1010.0 hPa ENE 1 mph /  1.6 km/h 3 mph /  4.8 km/h 51 % 0 in /  0.0 mm
22:47 68.5 °F /  20.3 °C 45.1 °F /  7.3 °C 29.8 in /  1008.0 hPa SW 3.5 mph /  5.6 km/h 3.5 mph /  5.6 km/h 43 % 0 in /  0.0 mm
22:52 68.4 °F /  20.2 °C 45.7 °F /  7.6 °C 29.8 in /  1008.0 hPa SW 3.5 mph /  5.6 km/h 3.5 mph /  5.6 km/h 44 % 0 in /  0.0 mm
22:55 62.2 °F /  16.8 °C 43.9 °F /  6.6 °C 29.8 in /  1010.0 hPa ENE 2 mph /  3.2 km/h 3 mph /  4.8 km/h 51 % 0 in /  0.0 mm
22:57 68.2 °F /  20.1 °C 45.3 °F /  7.4 °C 29.8 in /  1008.0 hPa SW 2.9 mph /  4.7 km/h 2.9 mph /  4.7 km/h 44 % 0 in /  0.0 mm
23:02 68 °F /  20.0 °C 45.9 °F /  7.7 °C 29.8 in /  1008.0 hPa WSW 3.6 mph /  5.8 km/h 3.6 mph /  5.8 km/h 45 % 0 in /  0.0 mm
23:05 62.4 °F /  16.9 °C 44.1 °F /  6.7 °C 29.8 in /  1010.0 hPa ENE 3 mph /  4.8 km/h 3 mph /  4.8 km/h 51 % 0 in /  0.0 mm
23:07 68 °F /  20.0 °C 45.9 °F /  7.7 °C 29.8 in /  1008.0 hPa SW 2.9 mph /  4.7 km/h 2.9 mph /  4.7 km/h 45 % 0 in /  0.0 mm
23:12 67.8 °F /  19.9 °C 45.7 °F /  7.6 °C 29.8 in /  1008.0 hPa SSW 3.1 mph /  5.0 km/h 3.1 mph /  5.0 km/h 45 % 0 in /  0.0 mm
23:15 62.2 °F /  16.8 °C 44.4 °F /  6.9 °C 29.8 in /  1010.0 hPa ENE 2 mph /  3.2 km/h 2 mph /  3.2 km/h 52 % 0 in /  0.0 mm
23:17 67.6 °F /  19.8 °C 46 °F /  7.8 °C 29.8 in /  1008.0 hPa SW 2.3 mph /  3.7 km/h 2.3 mph /  3.7 km/h 46 % 0 in /  0.0 mm
23:22 67.6 °F /  19.8 °C 46 °F /  7.8 °C 29.8 in /  1008.0 hPa SW 2.3 mph /  3.7 km/h 2.3 mph /  3.7 km/h 46 % 0 in /  0.0 mm
23:25 62.2 °F /  16.8 °C 44.4 °F /  6.9 °C 29.8 in /  1009.0 hPa NE 2 mph /  3.2 km/h 3 mph /  4.8 km/h 52 % 0 in /  0.0 mm
23:27 67.5 °F /  19.7 °C 45.9 °F /  7.7 °C 29.8 in /  1009.0 hPa SW 2.3 mph /  3.7 km/h 2.3 mph /  3.7 km/h 46 % 0 in /  0.0 mm
23:32 67.5 °F /  19.7 °C 46.6 °F /  8.1 °C 29.8 in /  1009.0 hPa West 1.2 mph /  1.9 km/h   47 % 0 in /  0.0 mm
23:35 62.1 °F /  16.7 °C 44.2 °F /  6.8 °C 29.8 in /  1009.0 hPa Calm   3 mph /  4.8 km/h 52 % 0 in /  0.0 mm
23:37 67.5 °F /  19.7 °C 47.1 °F /  8.4 °C 29.8 in /  1009.0 hPa NE 1.2 mph /  1.9 km/h 1.2 mph /  1.9 km/h 48 % 0 in /  0.0 mm
23:42 67.5 °F /  19.7 °C 47.1 °F /  8.4 °C 29.8 in /  1009.0 hPa ENE 2.3 mph /  3.7 km/h 2.3 mph /  3.7 km/h 48 % 0 in /  0.0 mm
23:45 61.9 °F /  16.6 °C 44.1 °F /  6.7 °C 29.8 in /  1010.0 hPa Calm   3 mph /  4.8 km/h 52 % 0 in /  0.0 mm
23:47 67.5 °F /  19.7 °C 47.1 °F /  8.4 °C 29.8 in /  1009.0 hPa ENE 3.5 mph /  5.6 km/h 3.5 mph /  5.6 km/h 48 % 0 in /  0.0 mm
23:52 67.5 °F /  19.7 °C 47.1 °F /  8.4 °C 29.8 in /  1009.0 hPa ENE 2.3 mph /  3.7 km/h 2.3 mph /  3.7 km/h 48 % 0 in /  0.0 mm
23:55 61.5 °F /  16.4 °C 43.7 °F /  6.5 °C 29.8 in /  1010.0 hPa NE 2 mph /  3.2 km/h 3 mph /  4.8 km/h 52 % 0 in /  0.0 mm
23:57 67.3 °F /  19.6 °C 46.9 °F /  8.3 °C 29.8 in /  1009.0 hPa ENE 2.3 mph /  3.7 km/h 2.3 mph /  3.7 km/h 48 % 0 in /  0.0 mm
Meteo Sesrovires
Elogis d' Weather Underground - 3.75 mb

Guio original per  Jim McMurry - jmcmurry@mwt.net Adaptat per a la plantilla per  Wim van der Kuil - Leuven-Template.eu

Trobareu la nostra informacio del temps tambe a:

Weather Underground

AWEKAS